Terminal Aerodrome Forecast
Issued by NWS

Home | Current Version | Previous Version | Text Only | Print | Product List | Glossary Off
Versions: 1 2 3 4 5 6 7 8 9 10 11 12 13

000
FTUS43 KBIS 282320
TAFMOT
TAF
KMOT 282320Z 2900/2924 34008KT P6SM SKC
     FM290300 09004KT P6SM FEW250
     FM290600 16005KT P6SM FEW200
     FM291700 20009KT P6SM FEW200=

USA.gov is the U.S. government's official web portal to all federal, state and local government web resources and services.